Time;durP1;ratioP1;P1;durP2;ratioP2;P2;SDS_P1;SDS_P2;PMS_P1;PMS_P2;Temp;Humidity;BMP_temperature;BMP_pressure;BME280_temperature;BME280_humidity;BME280_pressure;Samples;Min_cycle;Max_cycle;Signal;HPM_P1;HPM_P2
2021/04/15 00:00:36;;;;;;;2.88;2.67;;;;;;;-2.68;89.79;93712.38;2113662;28;20456;-85
2021/04/15 00:01:39;;;;;;;2.90;2.70;;;;;;;-2.64;89.76;93705.41;2107146;28;20810;-84
2021/04/15 00:02:39;;;;;;;3.88;3.05;;;;;;;-2.72;89.55;93708.09;2106514;28;21000;-83
2021/04/15 00:03:40;;;;;;;3.25;2.88;;;;;;;-2.73;89.25;93702.09;2098314;28;20453;-83
2021/04/15 00:04:43;;;;;;;3.47;3.22;;;;;;;-2.72;89.59;93708.09;2090127;28;20036;-83
2021/04/15 00:05:44;;;;;;;3.05;2.85;;;;;;;-2.71;89.85;93709.63;2094425;28;20024;-82
2021/04/15 00:06:45;;;;;;;3.63;3.42;;;;;;;-2.70;90.51;93709.31;2103067;28;20857;-83
2021/04/15 00:07:45;;;;;;;3.83;3.53;;;;;;;-2.69;89.75;93710.06;2098308;28;20435;-83
2021/04/15 00:08:47;;;;;;;3.70;3.40;;;;;;;-2.69;89.34;93710.06;2098158;28;20381;-83
2021/04/15 00:09:47;;;;;;;3.20;3.00;;;;;;;-2.72;89.78;93711.50;2105987;28;20028;-83
2021/04/15 00:10:51;;;;;;;3.30;3.10;;;;;;;-2.72;89.72;93706.25;2099159;28;20450;-86
2021/04/15 00:11:52;;;;;;;3.28;3.00;;;;;;;-2.72;89.32;93710.69;2092116;28;20037;-83
2021/04/15 00:12:53;;;;;;;3.20;2.95;;;;;;;-2.76;90.59;93702.75;2106903;28;20466;-87
2021/04/15 00:13:55;;;;;;;3.38;3.10;;;;;;;-2.76;90.14;93705.34;2113366;28;20621;-84
2021/04/15 00:14:56;;;;;;;3.50;3.30;;;;;;;-2.80;90.32;93707.84;2100478;28;20033;-82
2021/04/15 00:15:57;;;;;;;3.15;2.95;;;;;;;-2.75;89.99;93703.50;2108636;28;20463;-86
2021/04/15 00:16:57;;;;;;;3.92;3.40;;;;;;;-2.76;90.04;93702.75;2106496;28;20117;-85
2021/04/15 00:17:58;;;;;;;3.30;3.08;;;;;;;-2.71;90.00;93707.78;2106559;28;20979;-84
2021/04/15 00:19:00;;;;;;;4.07;3.13;;;;;;;-2.63;89.56;93704.34;2100340;28;20036;-83
2021/04/15 00:20:00;;;;;;;3.25;3.03;;;;;;;-2.69;90.36;93699.59;2095991;28;20036;-83
2021/04/15 00:21:03;;;;;;;3.55;3.33;;;;;;;-2.70;90.61;93703.31;2092579;28;20432;-86
2021/04/15 00:22:03;;;;;;;3.30;3.10;;;;;;;-2.66;90.91;93702.38;2104150;28;20035;-85
2021/04/15 00:23:04;;;;;;;3.30;2.90;;;;;;;-2.67;90.99;93703.44;2105779;28;21118;-81
2021/04/15 00:24:05;;;;;;;3.42;3.20;;;;;;;-2.62;90.62;93697.25;2098097;28;20029;-85
2021/04/15 00:25:06;;;;;;;3.60;3.30;;;;;;;-2.60;90.10;93692.47;2098589;28;20426;-82
2021/04/15 00:26:09;;;;;;;3.20;3.00;;;;;;;-2.55;90.68;93690.44;2115033;28;20822;-84
2021/04/15 00:27:10;;;;;;;3.83;3.53;;;;;;;-2.53;90.63;93692.75;2101936;28;20445;-83
2021/04/15 00:28:10;;;;;;;3.42;3.22;;;;;;;-2.51;91.57;93685.31;2115143;28;20818;-83
2021/04/15 00:29:10;;;;;;;3.45;3.22;;;;;;;-2.50;91.73;93694.72;2097984;28;20155;-85
2021/04/15 00:30:12;;;;;;;3.35;3.10;;;;;;;-2.49;91.30;93677.94;2102404;28;20039;-84
2021/04/15 00:31:13;;;;;;;3.45;3.15;;;;;;;-2.46;91.30;93687.75;2123574;27;20029;-84
2021/04/15 00:32:13;;;;;;;3.70;3.40;;;;;;;-2.38;91.04;93688.78;2097968;28;20966;-82
2021/04/15 00:33:15;;;;;;;3.58;3.22;;;;;;;-2.39;90.21;93682.00;2086075;28;20024;-81
2021/04/15 00:34:15;;;;;;;3.58;3.28;;;;;;;-2.35;89.75;93688.13;2105971;28;20118;-82
2021/04/15 00:35:17;;;;;;;3.45;3.25;;;;;;;-2.39;90.24;93679.41;2097947;28;20534;-84
2021/04/15 00:36:20;;;;;;;3.20;3.00;;;;;;;-2.36;90.91;93687.38;2098911;28;20042;-83
2021/04/15 00:37:20;;;;;;;3.30;3.10;;;;;;;-2.41;90.56;93676.34;2114397;28;20524;-85
2021/04/15 00:38:23;;;;;;;3.75;3.45;;;;;;;-2.33;91.37;93684.13;2090048;28;21270;-82
2021/04/15 00:39:24;;;;;;;3.70;3.30;;;;;;;-2.34;90.98;93685.19;2090269;28;20469;-83
2021/04/15 00:40:25;;;;;;;3.45;3.25;;;;;;;-2.26;91.04;93682.84;2103952;28;20461;-84
2021/04/15 00:41:26;;;;;;;3.70;3.40;;;;;;;-2.25;91.72;93684.38;2117483;27;20023;-84
2021/04/15 00:42:28;;;;;;;3.28;3.08;;;;;;;-2.21;91.96;93683.41;2112634;28;20944;-83
2021/04/15 00:43:33;;;;;;;3.53;3.25;;;;;;;-2.20;91.88;93674.44;2106748;28;20696;-81
2021/04/15 00:44:33;;;;;;;3.50;3.30;;;;;;;-2.17;90.86;93681.66;2106921;28;20960;-82
2021/04/15 00:45:39;;;;;;;3.15;2.95;;;;;;;-2.16;90.44;93677.97;2113439;28;20517;-86
2021/04/15 00:46:42;;;;;;;3.72;3.42;;;;;;;-2.20;90.75;93677.06;2099840;28;20020;-83
2021/04/15 00:47:48;;;;;;;3.50;3.17;;;;;;;-2.13;90.45;93674.72;2115071;28;20432;-80
2021/04/15 00:48:49;;;;;;;3.28;3.08;;;;;;;-2.18;91.75;93674.91;2107139;28;20485;-85
2021/04/15 00:49:58;;;;;;;3.67;3.38;;;;;;;-2.21;91.96;93674.78;2098087;28;21043;-84
2021/04/15 00:51:09;;;;;;;3.80;3.50;;;;;;;-2.22;91.56;93673.25;2091916;28;20025;-85
2021/04/15 00:52:15;;;;;;;3.38;3.10;;;;;;;-2.28;90.71;93670.06;2100940;28;20991;-83
2021/04/15 00:53:21;;;;;;;3.40;3.20;;;;;;;-2.26;90.93;93674.97;2107283;28;20945;-83
2021/04/15 00:54:25;;;;;;;3.75;3.45;;;;;;;-2.23;90.39;93667.25;2098830;28;20446;-83
2021/04/15 00:55:30;;;;;;;3.42;3.13;;;;;;;-2.20;91.41;93671.84;2105420;28;20470;-87
2021/04/15 00:56:32;;;;;;;3.75;3.53;;;;;;;-2.21;91.79;93665.06;2106607;28;20537;-84
2021/04/15 00:57:36;;;;;;;3.30;3.10;;;;;;;-2.19;90.35;93667.38;2089691;28;20577;-81
2021/04/15 00:58:37;;;;;;;3.80;3.50;;;;;;;-2.17;89.95;93670.44;2106531;27;20457;-87
2021/04/15 00:59:39;;;;;;;3.60;3.30;;;;;;;-2.20;89.25;93669.22;2123283;27;20485;-83
2021/04/15 01:00:40;;;;;;;3.80;3.50;;;;;;;-2.29;90.42;93668.53;2122731;27;20042;-84
2021/04/15 01:01:40;;;;;;;4.25;3.85;;;;;;;-2.27;91.33;93671.59;2106195;28;20990;-84
2021/04/15 01:02:41;;;;;;;3.65;3.30;;;;;;;-2.33;91.95;93663.19;2106263;28;20442;-86
2021/04/15 01:03:41;;;;;;;3.97;3.60;;;;;;;-2.40;91.25;93667.41;2114519;28;20028;-84
2021/04/15 01:04:42;;;;;;;3.63;3.42;;;;;;;-2.38;90.62;93665.22;2106495;28;20020;-82
2021/04/15 01:05:45;;;;;;;3.38;3.15;;;;;;;-2.48;90.18;93663.75;2097736;28;20028;-84
2021/04/15 01:06:46;;;;;;;3.40;3.20;;;;;;;-2.60;90.41;93661.84;2106151;28;20135;-85
2021/04/15 01:07:47;;;;;;;3.67;3.38;;;;;;;-2.54;91.34;93657.94;2097850;28;20465;-84
2021/04/15 01:08:48;;;;;;;3.50;3.30;;;;;;;-2.55;90.23;93659.03;2098065;28;20109;-87
2021/04/15 01:09:50;;;;;;;3.58;3.38;;;;;;;-2.57;91.51;93650.72;2098006;28;20442;-86
2021/04/15 01:11:09;;;;;;;3.53;3.22;;;;;;;-2.68;89.82;93654.81;2099154;28;20437;-83
2021/04/15 01:12:34;;;;;;;3.55;3.35;;;;;;;-2.74;90.33;93658.69;2109374;28;20465;-83
2021/04/15 01:13:52;;;;;;;3.45;3.22;;;;;;;-2.71;89.93;93655.47;2110359;28;20453;-83
2021/04/15 01:15:11;;;;;;;3.33;3.03;;;;;;;-2.78;90.42;93652.56;2106128;28;20497;-85
2021/04/15 01:16:36;;;;;;;3.08;2.88;;;;;;;-2.76;90.32;93657.50;2100275;28;20430;-82
2021/04/15 01:17:53;;;;;;;3.30;3.10;;;;;;;-2.82;90.44;93659.53;2084182;28;20029;-82
2021/04/15 01:19:26;;;;;;;3.28;3.08;;;;;;;-2.80;89.32;93650.28;2097979;28;20407;-83
2021/04/15 01:20:45;;;;;;;3.17;2.88;;;;;;;-2.76;89.56;93658.28;2101829;28;20457;-87
2021/04/15 01:22:16;;;;;;;3.50;3.20;;;;;;;-2.85;89.45;93655.72;2099985;28;20418;-85
2021/04/15 01:23:26;;;;;;;3.63;2.75;;;;;;;-2.85;89.69;93662.78;2113023;28;20457;-84
2021/04/15 01:24:35;;;;;;;3.40;3.10;;;;;;;-2.83;90.01;93660.63;2101813;28;20454;-85
2021/04/15 01:26:12;;;;;;;3.17;2.92;;;;;;;-2.84;89.92;93662.47;2089840;28;20028;-86
2021/04/15 01:27:34;;;;;;;3.20;3.00;;;;;;;-2.76;90.19;93654.91;2097755;28;20039;-81
2021/04/15 01:29:00;;;;;;;3.25;3.00;;;;;;;-2.78;89.50;93663.03;2092996;28;20457;-82
2021/04/15 01:30:30;;;;;;;3.10;2.90;;;;;;;-2.71;89.09;93659.94;2089630;28;20890;-83
2021/04/15 01:31:40;;;;;;;;;;;;;;;-2.69;89.01;93660.38;2100181;28;20456;-84
2021/04/15 01:33:05;;;;;;;3.25;3.05;;;;;;;-2.69;90.23;93661.13;2108208;27;19912;-83
2021/04/15 01:34:15;;;;;;;3.05;2.83;;;;;;;-2.64;90.03;93660.16;2097735;28;20083;-81
2021/04/15 01:35:39;;;;;;;3.70;3.33;;;;;;;-2.75;91.08;93664.25;2096565;28;20451;-87
2021/04/15 01:36:50;;;;;;;3.13;2.92;;;;;;;-2.73;91.53;93668.06;2104529;28;20505;-85
2021/04/15 01:38:34;;;;;;;3.28;2.55;;;;;;;-2.64;90.82;93666.16;2099841;28;20977;-86
2021/04/15 01:39:43;;;;;;;4.45;3.22;;;;;;;-2.60;89.77;93666.31;2078072;28;20449;-85
2021/04/15 01:40:53;;;;;;;3.05;2.85;;;;;;;-2.74;90.58;93663.19;2083615;28;21283;-85
2021/04/15 01:41:59;;;;;;;4.55;3.40;;;;;;;-2.71;89.86;93663.31;2093168;28;20482;-84
2021/04/15 01:43:20;;;;;;;3.47;3.25;;;;;;;-2.71;91.55;93659.94;2104229;28;20020;-85
2021/04/15 01:44:37;;;;;;;3.47;3.28;;;;;;;-2.59;90.83;93660.75;2105809;28;20450;-88
2021/04/15 01:45:37;;;;;;;4.00;3.70;;;;;;;-2.71;90.90;93658.06;2102492;28;20450;-83
2021/04/15 01:46:39;;;;;;;3.80;3.50;;;;;;;-2.68;91.18;93659.28;2097396;28;21103;-81
2021/04/15 01:47:55;;;;;;;4.13;3.83;;;;;;;-2.72;91.92;93663.59;2101327;28;20039;-83
2021/04/15 01:48:59;;;;;;;3.67;3.38;;;;;;;-2.67;91.81;93661.59;2103760;27;20402;-87
2021/04/15 01:50:06;;;;;;;3.47;3.28;;;;;;;-2.64;91.53;93658.31;2106024;28;20430;-85
2021/04/15 01:51:13;;;;;;;3.47;3.20;;;;;;;-2.61;91.77;93659.53;2099459;28;20465;-84
2021/04/15 01:52:16;;;;;;;4.25;3.85;;;;;;;-2.62;92.04;93658.78;2094131;28;20443;-86
2021/04/15 01:53:28;;;;;;;3.72;3.42;;;;;;;-2.60;91.90;93659.22;2094142;28;20538;-88
2021/04/15 01:54:47;;;;;;;3.90;3.60;;;;;;;-2.59;91.38;93663.38;2102917;28;20499;-84
2021/04/15 01:55:56;;;;;;;4.05;3.75;;;;;;;-2.52;90.63;93662.84;2109970;27;20898;-85
2021/04/15 01:57:02;;;;;;;3.90;3.58;;;;;;;-2.54;91.52;93657.94;2100258;28;20521;-88
2021/04/15 01:58:11;;;;;;;4.30;4.00;;;;;;;-2.47;92.30;93664.50;2103075;28;20033;-84
2021/04/15 01:59:26;;;;;;;3.88;3.60;;;;;;;-2.51;92.22;93661.00;2107635;27;21023;-84
2021/04/15 02:00:30;;;;;;;3.88;3.58;;;;;;;-2.44;92.00;93662.03;2101768;28;20450;-84
2021/04/15 02:01:42;;;;;;;4.13;3.72;;;;;;;-2.46;91.75;93658.94;2097113;28;20451;-83
2021/04/15 02:02:45;;;;;;;3.75;3.55;;;;;;;-2.47;92.51;93661.91;2090735;28;20530;-84
2021/04/15 02:03:50;;;;;;;4.00;3.70;;;;;;;-2.47;93.09;93660.03;2082311;28;20527;-85
2021/04/15 02:05:21;;;;;;;3.90;3.60;;;;;;;-2.39;92.35;93655.84;2096702;28;21049;-85
2021/04/15 02:06:26;;;;;;;4.20;3.80;;;;;;;-2.44;91.45;93661.28;2093701;28;20930;-85
2021/04/15 02:07:32;;;;;;;4.32;4.03;;;;;;;-2.46;91.88;93660.81;2089848;28;21065;-85
2021/04/15 02:08:40;;;;;;;3.78;3.47;;;;;;;-2.47;91.81;93664.50;2096802;28;20443;-88
2021/04/15 02:09:43;;;;;;;4.00;3.70;;;;;;;-2.50;92.46;93657.28;2098604;28;20994;-86
2021/04/15 02:10:49;;;;;;;3.88;3.58;;;;;;;-2.47;92.94;93656.66;2089640;28;20443;-86
2021/04/15 02:11:57;;;;;;;3.95;3.65;;;;;;;-2.54;92.62;93657.94;2088768;28;20436;-86
2021/04/15 02:13:01;;;;;;;3.83;3.53;;;;;;;-2.51;93.18;93661.00;2091585;28;20411;-83
2021/04/15 02:14:02;;;;;;;4.07;3.78;;;;;;;-2.40;92.74;93660.31;2089153;28;20443;-84
2021/04/15 02:15:11;;;;;;;4.18;3.80;;;;;;;-2.44;91.94;93658.66;2090457;28;21137;-82
2021/04/15 02:16:18;;;;;;;4.85;4.45;;;;;;;-2.35;91.93;93659.34;2105805;28;20070;-86
2021/04/15 02:17:20;;;;;;;4.25;3.95;;;;;;;-2.34;92.37;93656.41;2098531;28;20443;-86
2021/04/15 02:18:28;;;;;;;4.60;4.20;;;;;;;-2.39;92.39;93661.84;2094829;28;20439;-82
2021/04/15 02:19:42;;;;;;;3.83;3.63;;;;;;;-2.33;93.09;93657.16;2090848;28;20439;-88
2021/04/15 02:20:47;;;;;;;4.65;4.35;;;;;;;-2.28;92.39;93662.22;2093051;28;20498;-87
2021/04/15 02:22:03;;;;;;;5.38;4.88;;;;;;;-2.19;92.59;93655.06;2089519;28;20435;-84
2021/04/15 02:23:06;;;;;;;5.05;4.65;;;;;;;-2.13;91.52;93658.22;2087762;28;20455;-84
2021/04/15 02:24:30;;;;;;;4.78;4.38;;;;;;;-2.17;92.17;93658.09;2086305;28;20448;-85
2021/04/15 02:25:36;;;;;;;5.07;4.68;;;;;;;-2.18;92.50;93664.44;2094093;28;20542;-83
2021/04/15 02:26:39;;;;;;;5.07;4.68;;;;;;;-2.13;91.67;93661.63;2089522;28;21024;-83
2021/04/15 02:27:55;;;;;;;5.50;5.10;;;;;;;-2.13;92.07;93661.63;2097435;28;20451;-83
2021/04/15 02:29:03;;;;;;;5.22;4.88;;;;;;;-2.16;91.63;93657.00;2110257;28;20947;-82
2021/04/15 02:30:29;;;;;;;5.43;4.95;;;;;;;-2.12;92.29;93655.28;2105835;28;20438;-80
2021/04/15 02:31:46;;;;;;;5.45;5.05;;;;;;;-2.07;91.22;93659.56;2095765;28;20449;-84
2021/04/15 02:32:58;;;;;;;5.20;4.80;;;;;;;-2.04;91.91;93664.91;2097739;28;20429;-82
2021/04/15 02:34:06;;;;;;;5.00;4.60;;;;;;;-2.07;91.97;93655.06;2082079;28;21034;-83
2021/04/15 02:35:34;;;;;;;4.95;4.65;;;;;;;-2.04;91.15;93659.69;2082968;28;20424;-82
2021/04/15 02:36:58;;;;;;;4.93;4.63;;;;;;;-2.05;92.02;93657.41;2062834;28;20551;-83
2021/04/15 02:38:02;;;;;;;5.40;5.00;;;;;;;-2.05;92.21;93657.41;2105124;28;20446;-83
2021/04/15 02:39:09;;;;;;;6.13;5.10;;;;;;;-2.06;92.13;93656.63;2102836;28;20476;-82
2021/04/15 02:40:15;;;;;;;5.15;4.75;;;;;;;-2.05;91.94;93660.78;2094627;28;20471;-83
2021/04/15 02:41:23;;;;;;;5.72;5.25;;;;;;;-2.03;92.22;93655.19;2093598;28;20447;-84
2021/04/15 02:42:28;;;;;;;5.75;5.25;;;;;;;-2.01;92.04;93658.28;2096657;28;20451;-84
2021/04/15 02:43:36;;;;;;;5.07;4.68;;;;;;;-2.04;92.99;93657.06;2114634;28;20491;-86
2021/04/15 02:44:46;;;;;;;5.95;5.55;;;;;;;-2.01;92.45;93660.91;2098052;28;20470;-81
2021/04/15 02:45:51;;;;;;;6.03;5.53;;;;;;;-2.10;91.93;93655.75;2091083;28;20440;-83
2021/04/15 02:46:56;;;;;;;5.90;5.40;;;;;;;-2.06;92.12;93656.63;2088770;28;20447;-85
2021/04/15 02:48:21;;;;;;;5.97;5.47;;;;;;;-2.06;93.39;93654.00;2082033;28;20448;-82
2021/04/15 02:49:26;;;;;;;5.43;5.03;;;;;;;-2.01;92.05;93653.03;2092865;28;20533;-84
2021/04/15 02:50:27;;;;;;;6.07;5.57;;;;;;;-1.99;92.83;93655.34;2081286;28;20440;-85
2021/04/15 02:51:31;;;;;;;6.20;5.60;;;;;;;-2.00;92.70;93654.56;2072761;28;20448;-81
2021/04/15 02:52:36;;;;;;;5.95;5.45;;;;;;;-2.05;93.01;93658.16;2087464;28;20991;-82
2021/04/15 02:53:42;;;;;;;5.78;5.38;;;;;;;-2.07;92.72;93654.31;2089636;28;20868;-83
2021/04/15 02:54:53;;;;;;;6.05;5.50;;;;;;;-2.06;92.32;93658.50;2098186;28;20414;-87
2021/04/15 02:56:21;;;;;;;5.60;5.20;;;;;;;-2.07;92.55;93654.31;2097283;28;20446;-84
2021/04/15 02:57:35;;;;;;;5.70;5.30;;;;;;;-2.15;92.79;93655.94;2098042;28;20458;-84
2021/04/15 02:58:43;;;;;;;5.85;5.45;;;;;;;-2.16;92.42;93643.91;2109802;27;20410;-85
2021/04/15 02:59:43;;;;;;;6.00;5.53;;;;;;;-2.22;92.92;93653.06;2107468;28;20456;-84
2021/04/15 03:00:47;;;;;;;6.13;5.70;;;;;;;-2.23;93.81;93653.41;2090926;28;20431;-84
2021/04/15 03:01:53;;;;;;;5.60;5.20;;;;;;;-2.26;93.60;93652.19;2099282;28;20079;-84
2021/04/15 03:03:05;;;;;;;6.43;5.82;;;;;;;-2.29;93.45;93656.19;2106253;28;20442;-83
2021/04/15 03:04:12;;;;;;;6.18;5.68;;;;;;;-2.28;92.96;93654.38;2090743;28;21058;-86
2021/04/15 03:05:17;;;;;;;5.97;5.55;;;;;;;-2.33;93.39;93652.72;2088191;28;20452;-85
2021/04/15 03:06:24;;;;;;;5.95;5.45;;;;;;;-2.31;93.09;93655.00;2096188;28;20875;-89
2021/04/15 03:07:26;;;;;;;6.82;6.22;;;;;;;-2.31;93.16;93647.91;2104640;28;20567;-88
2021/04/15 03:08:28;;;;;;;6.18;5.68;;;;;;;-2.34;93.05;93650.41;2103187;28;20453;-88
2021/04/15 03:09:34;;;;;;;6.57;6.07;;;;;;;-2.38;93.08;93654.75;2099080;28;20418;-87
2021/04/15 03:10:44;;;;;;;6.68;6.18;;;;;;;-2.38;93.12;93646.88;2098805;28;21005;-82
2021/04/15 03:12:23;;;;;;;6.50;5.90;;;;;;;-2.46;93.67;93652.94;2084665;28;20452;-82
2021/04/15 03:13:33;;;;;;;7.00;6.50;;;;;;;-2.50;93.87;93650.25;2100192;27;20077;-86
2021/04/15 03:14:57;;;;;;;6.68;6.20;;;;;;;-2.53;94.00;93646.41;2115612;28;20500;-84
2021/04/15 03:16:02;;;;;;;6.63;6.03;;;;;;;-2.56;94.10;93657.50;2096842;28;20500;-82
2021/04/15 03:17:05;;;;;;;6.65;6.10;;;;;;;-2.56;94.04;93652.25;2091030;28;20451;-88
2021/04/15 03:18:12;;;;;;;7.22;6.68;;;;;;;-2.59;93.66;93650.31;2088929;28;20454;-86
2021/04/15 03:19:29;;;;;;;6.65;6.15;;;;;;;-2.62;94.63;93642.31;2104582;28;20462;-84
2021/04/15 03:20:38;;;;;;;6.70;6.20;;;;;;;-2.59;94.88;93647.69;2115845;27;20456;-83
2021/04/15 03:21:45;;;;;;;7.10;6.47;;;;;;;-2.64;94.19;93644.47;2116982;27;20424;-84
2021/04/15 03:22:55;;;;;;;6.30;5.90;;;;;;;-2.58;94.53;93637.97;2107400;28;20453;-82
2021/04/15 03:24:01;;;;;;;6.45;5.95;;;;;;;-2.63;94.72;93654.63;2103192;27;20451;-86
2021/04/15 03:25:03;;;;;;;6.90;6.40;;;;;;;-2.64;95.49;93652.31;2105200;28;20032;-85
2021/04/15 03:26:32;;;;;;;6.72;6.22;;;;;;;-2.68;94.58;93648.81;2098718;28;20459;-85
2021/04/15 03:27:53;;;;;;;6.60;6.10;;;;;;;-2.73;93.98;93654.22;2099490;28;20454;-83
2021/04/15 03:29:10;;;;;;;6.50;6.00;;;;;;;-2.78;93.99;93647.34;2102920;28;20426;-82
2021/04/15 03:30:25;;;;;;;6.35;5.90;;;;;;;-2.77;94.70;93643.63;2098474;28;20458;-83
2021/04/15 03:31:30;;;;;;;6.30;5.80;;;;;;;-2.75;95.21;93648.56;2094447;28;21021;-81
2021/04/15 03:32:57;;;;;;;7.10;6.60;;;;;;;-2.82;95.12;93647.22;2090391;28;20452;-84
2021/04/15 03:34:07;;;;;;;6.68;6.18;;;;;;;-2.80;95.52;93649.53;2097295;28;20454;-87
2021/04/15 03:35:23;;;;;;;6.00;5.60;;;;;;;-2.83;94.79;93653.53;2103103;28;20450;-86
2021/04/15 03:36:33;;;;;;;6.57;6.07;;;;;;;-2.86;94.94;93650.78;2106489;28;20837;-86
2021/04/15 03:37:49;;;;;;;6.82;6.32;;;;;;;-2.88;94.70;93650.34;2099751;28;20447;-83
2021/04/15 03:39:00;;;;;;;7.00;6.40;;;;;;;-2.90;94.44;93650.63;2102574;28;20033;-84
2021/04/15 03:40:01;;;;;;;7.25;6.60;;;;;;;-2.95;93.92;93644.84;2099327;28;20451;-83
2021/04/15 03:41:15;;;;;;;6.40;5.90;;;;;;;-3.01;93.56;93651.34;2100106;28;20458;-87
2021/04/15 03:42:27;;;;;;;6.68;6.18;;;;;;;-3.08;93.45;93647.38;2091659;28;20609;-85
2021/04/15 03:43:36;;;;;;;6.97;6.47;;;;;;;-3.11;92.89;93634.19;2087879;28;20448;-85
2021/04/15 03:44:42;;;;;;;6.43;5.93;;;;;;;-3.07;93.20;93645.53;2095622;28;20442;-81
2021/04/15 03:45:47;;;;;;;6.55;6.05;;;;;;;-3.12;93.31;93636.00;2102126;28;20446;-85
2021/04/15 03:47:05;;;;;;;7.05;6.45;;;;;;;-3.07;93.62;93642.94;2094443;28;20469;-83
2021/04/15 03:48:11;;;;;;;7.35;6.72;;;;;;;-3.10;94.10;93641.69;2102049;28;20446;-83
2021/04/15 03:49:19;;;;;;;6.70;6.10;;;;;;;-3.05;94.32;93635.53;2098436;28;20529;-83
2021/04/15 03:50:25;;;;;;;7.20;6.60;;;;;;;-3.05;94.04;93644.13;2101950;27;20450;-83
2021/04/15 03:51:35;;;;;;;7.28;6.57;;;;;;;-3.08;94.05;93638.75;2100885;28;20485;-85
2021/04/15 03:52:44;;;;;;;7.35;6.70;;;;;;;-3.09;94.44;93645.84;2099266;28;20569;-82
2021/04/15 03:53:58;;;;;;;7.10;6.43;;;;;;;-3.11;94.31;93645.41;2092487;28;20080;-81
2021/04/15 03:55:15;;;;;;;7.22;6.63;;;;;;;-3.13;94.31;93654.63;2108741;28;20512;-84
2021/04/15 03:56:45;;;;;;;7.32;6.72;;;;;;;-3.05;94.60;93649.34;2102856;28;20461;-85
2021/04/15 03:57:49;;;;;;;7.30;6.70;;;;;;;-3.00;95.35;93652.88;2089427;28;20451;-83
2021/04/15 03:58:55;;;;;;;7.18;6.57;;;;;;;-3.10;94.82;93639.09;2095801;28;20032;-86
2021/04/15 04:00:10;;;;;;;7.43;6.82;;;;;;;-3.12;95.15;93646.47;2099911;28;20438;-84
2021/04/15 04:01:45;;;;;;;6.63;6.13;;;;;;;-3.14;94.81;93647.88;2110772;27;20441;-84
2021/04/15 04:02:54;;;;;;;7.10;6.60;;;;;;;-3.15;95.34;93644.50;2092861;28;20439;-84
2021/04/15 04:04:03;;;;;;;6.20;5.70;;;;;;;-3.01;94.92;93643.50;2090979;28;20449;-83
2021/04/15 04:05:12;;;;;;;6.88;6.28;;;;;;;-3.08;94.32;93644.75;2092388;28;20029;-84
2021/04/15 04:06:16;;;;;;;7.90;6.75;;;;;;;-3.06;93.63;93647.06;2107901;27;20472;-81
2021/04/15 04:07:30;;;;;;;7.63;6.93;;;;;;;-3.07;94.97;93654.16;2115541;27;20442;-84
2021/04/15 04:09:11;;;;;;;7.20;6.60;;;;;;;-3.10;94.89;93651.41;2108633;28;21017;-84
2021/04/15 04:10:20;;;;;;;6.38;5.88;;;;;;;-3.09;94.55;93645.84;2111783;28;20468;-84
2021/04/15 04:11:24;;;;;;;7.55;6.95;;;;;;;-3.12;95.05;93643.84;2100538;28;20843;-81
2021/04/15 04:12:39;;;;;;;7.47;6.88;;;;;;;-3.09;95.18;93645.84;2099078;28;20807;-85
2021/04/15 04:13:54;;;;;;;7.82;7.15;;;;;;;-3.02;95.12;93647.19;2110845;27;20525;-82
2021/04/15 04:15:17;;;;;;;7.65;7.05;;;;;;;-3.01;95.43;93646.13;2115249;27;20449;-86
2021/04/15 04:16:38;;;;;;;7.82;7.13;;;;;;;-3.04;95.12;93648.25;2101573;28;20434;-83
2021/04/15 04:18:02;;;;;;;7.32;6.75;;;;;;;-3.00;95.39;93647.63;2103650;28;20438;-85
2021/04/15 04:19:26;;;;;;;7.40;6.70;;;;;;;-2.96;95.53;93656.38;2118286;27;20568;-81
2021/04/15 04:20:30;;;;;;;6.88;6.28;;;;;;;-2.97;95.28;93647.00;2101159;28;20806;-86
2021/04/15 04:21:39;;;;;;;7.47;6.88;;;;;;;-2.93;95.37;93653.16;2105353;28;21068;-83
2021/04/15 04:22:50;;;;;;;8.27;6.93;;;;;;;-2.85;95.72;93647.88;2100411;28;20466;-83
2021/04/15 04:24:01;;;;;;;7.95;7.25;;;;;;;-2.79;95.62;93651.81;2109612;27;20036;-87
2021/04/15 04:25:29;;;;;;;8.85;7.68;;;;;;;-2.82;95.08;93643.81;2119170;27;20465;-85
2021/04/15 04:26:47;;;;;;;7.82;7.22;;;;;;;-2.79;94.43;93653.66;2112057;28;20475;-84
2021/04/15 04:27:58;;;;;;;7.75;6.97;;;;;;;-2.75;94.99;93651.19;2109785;27;20442;-87
2021/04/15 04:29:04;;;;;;;;;;;;;;;-2.76;94.63;93650.41;2108292;28;20973;-85
2021/04/15 04:30:11;;;;;;;7.45;6.85;;;;;;;-2.79;94.94;93651.06;2103177;28;19920;-83
2021/04/15 04:31:24;;;;;;;7.97;7.28;;;;;;;-2.80;94.95;93650.28;2102172;28;20831;-84
2021/04/15 04:32:26;;;;;;;7.90;7.20;;;;;;;-2.71;94.78;93652.84;2099549;28;20492;-84
2021/04/15 04:33:48;;;;;;;7.82;7.07;;;;;;;-2.79;94.67;93649.19;2090247;28;20490;-85
2021/04/15 04:34:58;;;;;;;8.35;7.72;;;;;;;-2.73;94.45;93659.47;2096516;28;20485;-86
2021/04/15 04:35:58;;;;;;;8.48;7.78;;;;;;;-2.76;94.39;93655.66;2115024;28;20442;-84
2021/04/15 04:37:01;;;;;;;9.15;8.35;;;;;;;-2.76;94.67;93652.28;2106467;28;20028;-84
2021/04/15 04:38:04;;;;;;;8.65;7.95;;;;;;;-2.72;94.47;93661.00;2100803;28;20089;-84
2021/04/15 04:39:06;;;;;;;8.95;8.25;;;;;;;-2.70;95.21;93649.13;2095803;28;20450;-83
2021/04/15 04:40:47;;;;;;;8.95;8.25;;;;;;;-2.68;94.67;93651.44;2101559;28;20978;-81
2021/04/15 04:41:53;;;;;;;8.10;7.30;;;;;;;-2.64;94.40;93652.31;2106072;28;20480;-85
2021/04/15 04:43:00;;;;;;;8.68;7.97;;;;;;;-2.65;94.15;93656.78;2107827;28;20446;-85
2021/04/15 04:44:07;;;;;;;8.32;7.63;;;;;;;-2.71;94.54;93660.69;2106143;28;20430;-82
2021/04/15 04:45:09;;;;;;;8.85;8.10;;;;;;;-2.70;94.79;93656.22;2107094;28;20462;-85
2021/04/15 04:46:40;;;;;;;8.38;7.68;;;;;;;-2.67;94.61;93653.75;2097939;28;20462;-82
2021/04/15 04:48:00;;;;;;;8.30;7.60;;;;;;;-2.60;94.93;93663.69;2097761;28;20556;-85
2021/04/15 04:49:06;;;;;;;8.85;8.00;;;;;;;-2.69;95.00;93661.13;2094447;28;20435;-85
2021/04/15 04:50:21;;;;;;;8.75;7.97;;;;;;;-2.61;95.02;93662.91;2105312;28;20081;-85
2021/04/15 04:51:28;;;;;;;8.00;7.30;;;;;;;-2.62;94.52;93658.78;2099865;28;21050;-81
2021/04/15 04:52:31;;;;;;;8.75;8.00;;;;;;;-2.66;94.56;93657.13;2096198;28;20443;-83
2021/04/15 04:53:38;;;;;;;9.60;8.80;;;;;;;-2.61;94.41;93660.31;2102781;28;20446;-82
2021/04/15 04:54:39;;;;;;;8.32;7.63;;;;;;;-2.62;94.47;93666.63;2116543;27;20751;-83
2021/04/15 04:56:05;;;;;;;8.57;7.93;;;;;;;-2.63;94.08;93667.72;2100549;28;20484;-85
2021/04/15 04:57:11;;;;;;;8.43;7.63;;;;;;;-2.63;94.22;93662.50;2098236;28;20457;-83
2021/04/15 04:58:18;;;;;;;9.30;8.50;;;;;;;-2.59;95.13;93670.44;2098470;28;21222;-85
2021/04/15 04:59:26;;;;;;;8.20;7.57;;;;;;;-2.61;94.19;93667.38;2096996;28;20454;-83
2021/04/15 05:00:27;;;;;;;8.77;8.07;;;;;;;-2.59;94.37;93662.59;2091675;28;20787;-81
2021/04/15 05:01:28;;;;;;;8.63;7.93;;;;;;;-2.58;93.57;93672.00;2096917;28;20435;-83
2021/04/15 05:02:29;;;;;;;8.82;8.13;;;;;;;-2.59;93.77;93663.38;2101593;28;20425;-83
2021/04/15 05:03:32;;;;;;;8.68;7.88;;;;;;;-2.66;94.10;93668.34;2111233;28;20840;-83
2021/04/15 05:04:34;;;;;;;8.82;8.05;;;;;;;-2.58;93.17;93666.75;2101368;28;20032;-85
2021/04/15 05:05:35;;;;;;;9.05;8.25;;;;;;;-2.52;93.62;93665.47;2099902;27;20895;-83
2021/04/15 05:06:40;;;;;;;8.45;7.75;;;;;;;-2.50;92.79;93667.75;2099332;28;20503;-82
2021/04/15 05:07:44;;;;;;;8.50;7.80;;;;;;;-2.50;93.07;93667.75;2092188;28;20601;-83
2021/04/15 05:09:23;;;;;;;9.35;8.55;;;;;;;-2.51;93.42;93659.16;2087662;28;20439;-85
2021/04/15 05:10:27;;;;;;;7.65;7.05;;;;;;;-2.44;93.26;93666.50;2091569;28;20438;-82
2021/04/15 05:11:30;;;;;;;8.32;7.55;;;;;;;-2.49;93.37;93661.47;2099510;28;20446;-84
2021/04/15 05:12:34;;;;;;;8.25;7.55;;;;;;;-2.49;92.85;93667.47;2099903;28;20419;-84
2021/04/15 05:13:35;;;;;;;8.40;7.68;;;;;;;-2.52;92.70;93668.09;2101522;28;20446;-83
2021/04/15 05:14:36;;;;;;;8.70;8.05;;;;;;;-2.52;92.94;93670.72;2103378;28;21063;-82
2021/04/15 05:15:39;;;;;;;7.97;7.38;;;;;;;-2.55;93.41;93666.91;2101937;28;20112;-83
2021/04/15 05:16:50;;;;;;;8.60;7.90;;;;;;;-2.58;94.03;93664.91;2086379;28;20444;-81
2021/04/15 05:17:51;;;;;;;8.23;7.43;;;;;;;-2.54;93.60;93657.94;2099646;28;20963;-83
2021/04/15 05:18:52;;;;;;;9.10;8.20;;;;;;;-2.43;93.35;93663.56;2100695;28;20447;-84
2021/04/15 05:19:53;;;;;;;9.00;8.20;;;;;;;-2.50;93.50;93670.38;2088233;28;20595;-84
2021/04/15 05:20:59;;;;;;;8.63;7.82;;;;;;;-2.52;93.25;93662.84;2097008;28;20024;-85
2021/04/15 05:22:03;;;;;;;8.52;7.82;;;;;;;-2.57;93.32;93663.81;2102084;28;20454;-82
2021/04/15 05:23:30;;;;;;;8.75;8.05;;;;;;;-2.49;92.78;93669.31;2106821;27;20422;-79
2021/04/15 05:24:48;;;;;;;8.02;7.32;;;;;;;-2.49;92.78;93670.09;2099021;28;20458;-84
2021/04/15 05:26:01;;;;;;;7.85;7.20;;;;;;;-2.44;92.84;93671.75;2095653;28;20450;-83